Time;durP1;ratioP1;P1;durP2;ratioP2;P2;SDS_P1;SDS_P2;PMS_P1;PMS_P2;Temp;Humidity;BMP_temperature;BMP_pressure;BME280_temperature;BME280_humidity;BME280_pressure;Samples;Min_cycle;Max_cycle;Signal;HPM_P1;HPM_P2
2022/03/23 00:00:27;;;;;;;60.20;34.13;;;;;;;-0.17;48.00;101292.44;1730308;81;20942;-59
2022/03/23 00:02:55;;;;;;;65.75;35.55;;;;;;;-0.18;48.00;101290.72;1724397;81;20970;-59
2022/03/23 00:05:25;;;;;;;66.87;38.45;;;;;;;-0.21;47.98;101293.22;1734698;82;21092;-59
2022/03/23 00:07:50;;;;;;;85.45;42.40;;;;;;;-0.25;48.15;101294.44;1720325;82;21062;-59
2022/03/23 00:10:17;;;;;;;76.10;40.07;;;;;;;-0.28;48.19;101289.23;1706489;82;21480;-59
2022/03/23 00:12:44;;;;;;;78.45;39.83;;;;;;;-0.33;48.34;101292.11;1712764;83;20983;-59
2022/03/23 00:15:12;;;;;;;72.42;40.80;;;;;;;-0.36;48.43;101289.48;1722911;83;20911;-59
2022/03/23 00:17:39;;;;;;;68.97;37.70;;;;;;;-0.38;48.52;101287.29;1704116;83;21927;-59
2022/03/23 00:20:06;;;;;;;;;;;;;;;-0.42;48.60;101288.07;1715001;82;20957;-59
2022/03/23 00:22:33;;;;;;;58.45;33.15;;;;;;;-0.45;48.78;101278.98;1707793;83;20446;-60
2022/03/23 00:24:59;;;;;;;59.67;34.13;;;;;;;-0.51;48.97;101282.28;1704418;82;21034;-59
2022/03/23 00:27:26;;;;;;;76.37;38.07;;;;;;;-0.56;48.93;101281.34;1704652;83;20950;-59
2022/03/23 00:29:53;;;;;;;73.67;38.05;;;;;;;-0.61;49.06;101279.50;1710889;83;21121;-58
2022/03/23 00:32:19;;;;;;;64.97;35.85;;;;;;;-0.69;49.10;101281.45;1697178;83;20911;-59
2022/03/23 00:34:46;;;;;;;56.55;34.60;;;;;;;-0.72;49.18;101276.67;1695805;83;21501;-59
2022/03/23 00:37:13;;;;;;;55.65;33.02;;;;;;;-0.76;49.23;101278.28;1711840;83;20946;-59
2022/03/23 00:39:39;;;;;;;53.30;32.50;;;;;;;-0.75;49.32;101278.75;1702853;82;20968;-59
2022/03/23 00:42:06;;;;;;;48.30;28.77;;;;;;;-0.71;49.50;101274.13;1714498;83;21935;-59
2022/03/23 00:44:33;;;;;;;50.75;29.72;;;;;;;-0.65;49.37;101269.98;1724545;82;20960;-59
2022/03/23 00:46:59;;;;;;;48.93;27.07;;;;;;;-0.59;49.49;101270.97;1740427;81;20938;-59
2022/03/23 00:49:26;;;;;;;47.43;28.10;;;;;;;-0.50;49.58;101261.36;1741125;80;21270;-59
2022/03/23 00:51:53;;;;;;;53.17;25.00;;;;;;;-0.41;49.48;101265.41;1727645;81;20959;-59
2022/03/23 00:54:21;;;;;;;46.75;26.07;;;;;;;-0.37;49.51;101266.34;1734462;81;21825;-59
2022/03/23 00:56:50;;;;;;;45.83;26.97;;;;;;;-0.35;49.41;101261.69;1735591;81;20908;-59
2022/03/23 00:59:16;;;;;;;49.80;27.62;;;;;;;-0.32;49.45;101257.91;1734677;82;20927;-59
2022/03/23 01:01:45;;;;;;;47.03;27.25;;;;;;;-0.31;49.55;101257.09;1720157;81;20915;-59
2022/03/23 01:04:13;;;;;;;47.27;26.57;;;;;;;-0.31;49.58;101258.38;1738849;81;20904;-59
2022/03/23 01:06:39;;;;;;;47.40;26.25;;;;;;;-0.35;49.63;101257.84;1746017;81;21588;-59
2022/03/23 01:09:06;;;;;;;42.73;25.80;;;;;;;-0.42;49.70;101254.70;1739026;81;20931;-59
2022/03/23 01:11:33;;;;;;;48.45;29.45;;;;;;;-0.52;49.83;101252.76;1715377;81;20921;-59
2022/03/23 01:14:03;;;;;;;53.35;30.08;;;;;;;-0.64;49.94;101246.05;1725087;81;21001;-59
2022/03/23 01:16:30;;;;;;;48.15;28.83;;;;;;;-0.74;50.13;101250.98;1709485;82;20963;-59
2022/03/23 01:18:57;;;;;;;59.55;30.68;;;;;;;-0.82;50.20;101249.92;1704490;82;24307;-59
2022/03/23 01:21:24;;;;;;;48.47;28.70;;;;;;;-0.84;50.25;101250.72;1710808;83;21512;-59
2022/03/23 01:23:51;;;;;;;51.75;28.15;;;;;;;-0.88;50.42;101243.37;1745689;80;20851;-59
2022/03/23 01:26:18;;;;;;;45.98;27.00;;;;;;;-0.95;50.50;101244.08;1747715;81;20919;-59
2022/03/23 01:28:45;;;;;;;57.27;30.70;;;;;;;-1.00;50.64;101246.95;1709167;83;20972;-59
2022/03/23 01:31:12;;;;;;;54.10;30.67;;;;;;;-1.16;50.84;101241.42;1723713;81;22037;-59
2022/03/23 01:33:39;;;;;;;57.70;32.20;;;;;;;-1.16;50.84;101241.42;1748442;80;21990;-59
2022/03/23 01:36:06;;;;;;;61.00;33.00;;;;;;;-1.22;50.89;101243.84;1739930;80;20982;-59
2022/03/23 01:38:33;;;;;;;65.05;33.92;;;;;;;-1.28;50.97;101246.25;1709262;82;20962;-59
2022/03/23 01:41:00;;;;;;;59.88;32.08;;;;;;;-1.30;51.03;101242.78;1712281;83;21006;-59
2022/03/23 01:43:26;;;;;;;57.87;34.40;;;;;;;-1.31;51.16;101241.05;1712847;82;21454;-59
2022/03/23 01:45:53;;;;;;;59.10;32.27;;;;;;;-1.33;51.20;101237.58;1700096;81;20925;-59
2022/03/23 01:48:20;;;;;;;62.50;34.08;;;;;;;-1.36;51.40;101231.09;1709771;81;20912;-58
2022/03/23 01:50:46;;;;;;;61.37;34.43;;;;;;;-1.41;51.40;101236.52;1750321;81;21820;-59
2022/03/23 01:53:13;;;;;;;60.63;35.92;;;;;;;-1.43;51.47;101230.48;1726559;82;20904;-59
2022/03/23 01:55:40;;;;;;;63.65;34.67;;;;;;;-1.43;51.58;101222.79;1730638;81;21068;-59
2022/03/23 01:58:06;;;;;;;66.67;34.27;;;;;;;-1.43;51.67;101231.75;1716744;81;21429;-59
2022/03/23 02:00:35;;;;;;;63.63;32.83;;;;;;;-1.43;51.81;101223.69;1736758;81;20939;-59
2022/03/23 02:03:01;;;;;;;51.65;31.17;;;;;;;-1.42;51.83;101221.98;1696873;83;21432;-59
2022/03/23 02:05:28;;;;;;;60.00;32.63;;;;;;;-1.41;51.89;101221.14;1748907;81;20855;-59
2022/03/23 02:07:58;;;;;;;54.48;32.78;;;;;;;-1.40;51.96;101222.86;1723882;83;21866;-59
2022/03/23 02:10:25;;;;;;;61.10;33.15;;;;;;;-1.41;52.05;101221.14;1741801;81;20952;-59
2022/03/23 02:12:52;;;;;;;60.00;32.42;;;;;;;-1.43;52.11;101215.10;1743848;81;20970;-59
2022/03/23 02:15:19;;;;;;;58.83;32.20;;;;;;;-1.49;52.14;101214.95;1718568;81;20927;-59
2022/03/23 02:17:47;;;;;;;62.53;32.60;;;;;;;-1.53;52.16;101215.72;1729366;81;20962;-59
2022/03/23 02:20:14;;;;;;;60.20;32.42;;;;;;;-1.57;52.27;101214.75;1727569;82;21200;-59
2022/03/23 02:22:41;;;;;;;54.80;32.10;;;;;;;-1.61;52.31;101209.97;1745667;81;21384;-59
2022/03/23 02:25:08;;;;;;;66.45;33.20;;;;;;;-1.63;52.51;101214.59;1707712;83;21528;-59
2022/03/23 02:27:38;;;;;;;65.37;32.00;;;;;;;-1.67;52.44;101216.22;1711866;82;21474;-59
2022/03/23 02:30:08;;;;;;;60.38;34.15;;;;;;;-1.71;52.60;101216.98;1715729;82;20954;-59
2022/03/23 02:32:35;;;;;;;60.12;32.85;;;;;;;-1.76;52.61;101218.55;1745418;81;21109;-59
2022/03/23 02:35:03;;;;;;;50.90;30.40;;;;;;;-1.79;52.77;101217.19;1734208;80;20962;-59
2022/03/23 02:37:30;;;;;;;56.45;31.93;;;;;;;-1.80;52.82;101216.70;1740902;80;20938;-59
2022/03/23 02:39:56;;;;;;;63.57;34.70;;;;;;;-1.81;52.85;101213.70;1699619;81;21057;-59
2022/03/23 02:42:23;;;;;;;59.27;34.13;;;;;;;-1.82;52.93;101205.55;1745745;81;20950;-59
2022/03/23 02:44:50;;;;;;;60.80;32.28;;;;;;;-1.83;53.03;101201.27;1706157;83;21101;-59
2022/03/23 02:47:17;;;;;;;56.95;31.42;;;;;;;-1.84;53.04;101199.55;1750225;80;20954;-59
2022/03/23 02:49:44;;;;;;;62.33;32.30;;;;;;;-1.89;53.03;101194.70;1749452;81;20965;-59
2022/03/23 02:52:10;;;;;;;51.70;31.68;;;;;;;-1.89;53.03;101194.70;1713103;83;20958;-59
2022/03/23 03:03:49;;;;;;;52.23;29.00;;;;;;;-1.99;53.57;101191.43;1711915;83;21472;-59
2022/03/23 03:06:16;;;;;;;55.15;30.43;;;;;;;-1.99;53.64;101199.11;1756512;81;20910;-60
2022/03/23 03:08:45;;;;;;;55.17;32.42;;;;;;;-2.00;53.88;101198.67;1730210;82;21001;-59
2022/03/23 03:11:12;;;;;;;56.08;32.38;;;;;;;-1.99;53.90;101195.27;1752163;81;21273;-59
2022/03/23 03:13:41;;;;;;;53.70;32.20;;;;;;;-1.97;53.87;101187.23;1714812;83;20976;-59
2022/03/23 03:16:08;;;;;;;50.20;31.10;;;;;;;-1.95;53.91;101190.70;1757464;81;20907;-59
2022/03/23 03:18:35;;;;;;;51.47;31.23;;;;;;;-1.94;53.94;101188.59;1727471;82;20962;-59
2022/03/23 03:21:07;;;;;;;52.78;32.25;;;;;;;-1.93;53.98;101189.03;1751074;81;20904;-59
2022/03/23 03:23:36;;;;;;;49.55;31.07;;;;;;;-1.94;54.02;101192.43;1716143;82;21338;-59
2022/03/23 03:26:05;;;;;;;52.23;31.73;;;;;;;-1.95;54.03;101186.87;1725360;82;21484;-59
2022/03/23 03:28:34;;;;;;;51.95;30.85;;;;;;;-1.96;54.13;101188.95;1720217;81;20946;-59
2022/03/23 03:31:03;;;;;;;53.78;29.82;;;;;;;-1.96;54.15;101186.39;1709041;82;21399;-59
2022/03/23 03:33:30;;;;;;;51.98;31.42;;;;;;;-1.97;54.20;101185.53;1751654;81;20907;-59
2022/03/23 03:35:56;;;;;;;51.87;31.03;;;;;;;-1.96;54.32;101182.55;1741204;80;21065;-59
2022/03/23 03:38:23;;;;;;;47.80;28.93;;;;;;;-2.00;54.38;101184.59;1720677;81;20903;-59
2022/03/23 03:40:50;;;;;;;52.13;30.23;;;;;;;-2.07;54.39;101189.55;1755356;81;21442;-59
2022/03/23 03:43:16;;;;;;;52.53;32.70;;;;;;;-2.09;54.49;101191.19;1756161;81;21009;-59
2022/03/23 03:45:45;;;;;;;57.73;30.17;;;;;;;-2.12;54.58;101187.27;1755087;81;21620;-58
2022/03/23 03:48:12;;;;;;;53.65;30.68;;;;;;;-2.18;54.60;101188.38;1701665;83;21066;-59
2022/03/23 03:50:39;;;;;;;47.62;28.27;;;;;;;-2.23;54.77;101187.38;1727982;81;21479;-60
2022/03/23 03:53:11;;;;;;;47.30;29.72;;;;;;;-2.25;54.88;101191.58;1701251;83;20915;-59
2022/03/23 03:55:39;;;;;;;46.00;28.12;;;;;;;-2.28;54.98;101195.33;1741884;81;21519;-59
2022/03/23 03:58:08;;;;;;;46.70;28.17;;;;;;;-2.32;54.96;101195.67;1718340;81;21018;-59
2022/03/23 04:00:35;;;;;;;48.08;28.20;;;;;;;-2.31;55.05;101193.97;1747577;81;21128;-59
2022/03/23 04:03:06;;;;;;;55.33;26.57;;;;;;;-2.34;55.15;101193.89;1716776;83;20935;-59
2022/03/23 04:05:35;;;;;;;46.77;29.15;;;;;;;-2.42;55.24;101197.91;1742840;81;21426;-59
2022/03/23 04:08:02;;;;;;;54.13;27.15;;;;;;;-2.49;55.27;101197.73;1695124;83;20967;-59
2022/03/23 04:10:29;;;;;;;51.70;28.95;;;;;;;-2.52;55.31;101200.20;1736746;81;21442;-59
2022/03/23 04:12:56;;;;;;;59.23;29.82;;;;;;;-2.53;55.35;101195.03;1704877;81;21070;-59
2022/03/23 04:15:25;;;;;;;;;;;;;;;-2.53;55.47;101201.01;1732411;81;20934;-59
2022/03/23 04:17:55;;;;;;;61.20;31.73;;;;;;;-2.54;55.63;101196.73;1737692;81;20459;-59
2022/03/23 04:20:23;;;;;;;56.02;33.25;;;;;;;-2.55;55.61;101201.40;1737995;81;20918;-59
2022/03/23 04:22:50;;;;;;;53.45;33.02;;;;;;;-2.53;55.65;101203.56;1705958;81;20963;-59
2022/03/23 04:25:18;;;;;;;54.90;31.85;;;;;;;-2.50;55.65;101206.22;1731124;81;21318;-59
2022/03/23 04:27:53;;;;;;;55.28;30.12;;;;;;;-2.47;55.68;101197.77;1708710;81;20951;-59
2022/03/23 04:30:37;;;;;;;52.53;28.42;;;;;;;-2.45;55.70;101200.38;1734559;80;21017;-59
2022/03/23 04:32:52;;;;;;;55.95;29.67;;;;;;;-2.44;55.74;101193.16;1693849;83;20931;-59
2022/03/23 04:35:21;;;;;;;70.75;29.85;;;;;;;-2.44;55.82;101196.98;1734722;81;20947;-59
2022/03/23 04:37:47;;;;;;;61.80;32.45;;;;;;;-2.45;55.70;101202.94;1700945;83;21058;-59
2022/03/23 04:40:15;;;;;;;56.28;31.20;;;;;;;-2.45;55.86;101197.83;1729008;81;20935;-59
2022/03/23 04:42:44;;;;;;;68.20;30.52;;;;;;;-2.45;55.87;101203.80;1741827;81;20989;-59
2022/03/23 04:45:12;;;;;;;61.42;30.85;;;;;;;-2.43;55.99;101194.91;1675920;83;21437;-59
2022/03/23 04:47:39;;;;;;;72.47;30.52;;;;;;;-2.44;56.05;101196.98;1717195;81;21500;-59
2022/03/23 04:50:08;;;;;;;70.90;31.03;;;;;;;-2.45;56.14;101190.16;1705441;82;21120;-59
2022/03/23 04:52:37;;;;;;;57.10;30.17;;;;;;;-2.48;56.17;101194.34;1707238;81;20992;-59
2022/03/23 04:55:05;;;;;;;55.70;28.87;;;;;;;-2.45;56.18;101197.83;1687686;83;20962;-59
2022/03/23 04:57:32;;;;;;;56.60;30.68;;;;;;;-2.30;56.55;101193.14;1705135;81;20922;-59
2022/03/23 04:59:59;;;;;;;58.38;31.95;;;;;;;-1.95;56.67;101200.95;1694426;82;20979;-59
2022/03/23 05:02:26;;;;;;;75.95;32.25;;;;;;;-1.49;56.71;101194.45;1707990;81;21105;-59
2022/03/23 05:04:52;;;;;;;59.67;30.75;;;;;;;-0.97;56.76;101190.61;1691582;83;20883;-59
2022/03/23 05:07:19;;;;;;;57.78;30.95;;;;;;;-0.36;56.75;101185.54;1704334;81;21008;-60
2022/03/23 05:09:46;;;;;;;52.48;29.37;;;;;;;0.29;56.66;101190.64;1696589;82;20984;-59
2022/03/23 05:12:13;;;;;;;46.45;29.52;;;;;;;0.86;56.36;101186.02;1704246;81;22012;-59
2022/03/23 05:14:39;;;;;;;46.13;27.60;;;;;;;1.24;55.90;101188.32;1692057;83;21049;-60
2022/03/23 05:17:06;;;;;;;42.78;27.48;;;;;;;1.71;56.01;101186.78;1706916;81;20933;-60
2022/03/23 05:19:35;;;;;;;48.33;27.42;;;;;;;2.25;56.08;101189.55;1694158;83;20947;-59
2022/03/23 05:22:01;;;;;;;45.25;27.75;;;;;;;2.69;55.73;101189.12;1705079;81;21001;-60
2022/03/23 05:24:28;;;;;;;46.55;27.17;;;;;;;3.17;55.84;101189.04;1698786;83;20903;-59
2022/03/23 05:26:55;;;;;;;53.65;27.17;;;;;;;3.67;55.54;101188.45;1708146;81;21088;-60
2022/03/23 05:29:24;;;;;;;60.85;28.35;;;;;;;4.09;55.45;101186.00;1688172;82;20947;-60
2022/03/23 05:31:51;;;;;;;54.73;27.55;;;;;;;4.56;55.37;101182.20;1708641;81;20894;-60
2022/03/23 05:34:18;;;;;;;45.17;27.53;;;;;;;5.12;55.38;101181.75;1705496;83;20971;-59
2022/03/23 05:36:45;;;;;;;50.73;23.37;;;;;;;5.56;55.05;101168.69;1707955;80;21096;-60
2022/03/23 05:39:11;;;;;;;49.00;23.17;;;;;;;5.95;54.95;101179.80;1696249;82;21180;-60
2022/03/23 05:41:38;;;;;;;58.53;24.07;;;;;;;6.29;54.76;101174.41;1712756;83;20951;-60
2022/03/23 05:44:06;;;;;;;90.85;25.97;;;;;;;6.46;54.49;101185.53;1719159;81;20951;-59
2022/03/23 05:46:32;;;;;;;67.87;24.80;;;;;;;6.64;54.41;101180.66;1706307;82;21088;-60
2022/03/23 05:48:59;;;;;;;90.15;28.02;;;;;;;6.91;54.38;101170.45;1709009;83;21626;-59
2022/03/23 05:51:26;;;;;;;46.33;23.73;;;;;;;7.14;54.37;101171.97;1723314;82;21083;-60
2022/03/23 05:53:53;;;;;;;67.20;25.68;;;;;;;7.66;54.71;101168.81;1711231;83;20974;-59
2022/03/23 05:56:20;;;;;;;51.50;23.30;;;;;;;8.12;54.87;101168.20;1729396;83;21448;-60
2022/03/23 05:58:46;;;;;;;51.00;26.00;;;;;;;8.77;54.92;101162.06;1723935;83;20924;-59
2022/03/23 06:01:13;;;;;;;41.77;24.80;;;;;;;9.14;54.76;101160.52;1720899;82;20911;-60
2022/03/23 06:03:40;;;;;;;50.70;25.10;;;;;;;9.61;54.65;101161.34;1727850;83;21039;-60
2022/03/23 06:06:09;;;;;;;63.87;25.40;;;;;;;9.83;54.09;101160.88;1722397;82;21876;-60
2022/03/23 06:08:35;;;;;;;38.65;25.50;;;;;;;10.05;54.51;101162.16;1720728;83;21025;-60
2022/03/23 06:11:02;;;;;;;46.37;25.60;;;;;;;10.31;53.95;101160.75;1748748;80;20886;-60
2022/03/23 06:13:29;;;;;;;42.65;25.43;;;;;;;10.14;53.56;101152.39;1732367;81;21025;-60
2022/03/23 06:15:56;;;;;;;55.45;27.80;;;;;;;9.94;53.40;101151.11;1721373;82;21471;-60
2022/03/23 06:18:23;;;;;;;163.32;38.48;;;;;;;9.78;53.26;101154.93;1753210;81;20916;-60
2022/03/23 06:20:51;;;;;;;120.40;38.15;;;;;;;9.59;53.35;101155.30;1747144;81;21851;-60
2022/03/23 06:23:18;;;;;;;65.83;32.78;;;;;;;9.93;53.80;101157.20;1723780;82;20901;-60
2022/03/23 06:25:45;;;;;;;;;;;;;;;10.40;53.67;101157.06;1682799;83;20954;-61
2022/03/23 06:28:11;;;;;;;45.60;26.48;;;;;;;10.34;52.97;101150.23;1736150;81;21043;-60
2022/03/23 06:30:39;;;;;;;90.97;31.52;;;;;;;10.26;52.95;101149.52;1737333;82;20926;-60
2022/03/23 06:33:06;;;;;;;96.30;30.60;;;;;;;10.23;52.76;101146.98;1755655;81;21472;-60
2022/03/23 06:35:36;;;;;;;87.42;28.52;;;;;;;10.38;52.89;101150.55;1743411;81;20891;-59
2022/03/23 06:38:04;;;;;;;98.72;30.72;;;;;;;10.51;52.64;101161.12;1710466;83;20899;-61
2022/03/23 06:40:31;;;;;;;117.60;32.38;;;;;;;10.39;52.57;101153.59;1754111;81;21058;-60
2022/03/23 06:42:58;;;;;;;199.65;45.63;;;;;;;10.39;52.53;101154.91;1744001;81;20967;-60
2022/03/23 06:45:26;;;;;;;87.95;36.50;;;;;;;10.44;52.36;101158.69;1727956;81;32526;-60
2022/03/23 06:47:56;;;;;;;80.25;35.95;;;;;;;10.33;52.28;101161.55;1699033;82;20923;-61
2022/03/23 06:50:23;;;;;;;103.30;38.23;;;;;;;10.29;52.38;101154.69;1754631;80;21022;-60
2022/03/23 06:52:52;;;;;;;75.97;38.10;;;;;;;10.45;52.30;101153.44;1747437;81;21158;-61
2022/03/23 06:55:19;;;;;;;102.62;41.08;;;;;;;10.71;51.78;101154.10;1744102;80;21532;-60
2022/03/23 06:57:46;;;;;;;102.85;43.30;;;;;;;10.94;51.91;101157.43;1700195;83;20911;-60
2022/03/23 07:00:13;;;;;;;118.85;43.35;;;;;;;11.43;52.33;101152.66;1750869;81;20987;-60
2022/03/23 07:02:46;;;;;;;112.88;42.95;;;;;;;11.95;52.24;101159.01;1722334;81;20887;-63
2022/03/23 07:05:16;;;;;;;93.03;41.45;;;;;;;12.26;51.83;101151.06;1756547;80;21048;-60
2022/03/23 07:09:31;;;;;;;64.77;37.85;;;;;;;12.40;51.43;101152.40;1716114;83;20947;-61
2022/03/23 07:10:12;;;;;;;55.05;34.23;;;;;;;12.55;51.22;101158.47;1748550;80;20898;-60
2022/03/23 07:12:38;;;;;;;67.37;33.40;;;;;;;12.67;51.16;101152.81;1716332;82;20962;-61
2022/03/23 07:15:08;;;;;;;70.72;34.35;;;;;;;12.65;50.87;101155.93;1748860;81;20990;-60
2022/03/23 07:17:35;;;;;;;70.08;34.15;;;;;;;12.55;50.68;101157.16;1736335;81;21848;-60
2022/03/23 07:20:01;;;;;;;80.20;34.50;;;;;;;12.41;50.89;101159.37;1744949;81;21582;-62
2022/03/23 07:22:28;;;;;;;57.83;30.65;;;;;;;12.33;50.68;101162.68;1760868;81;20983;-60
2022/03/23 07:24:55;;;;;;;69.40;31.35;;;;;;;12.17;50.49;101161.84;1755043;81;20931;-60
2022/03/23 07:27:24;;;;;;;68.35;28.67;;;;;;;12.02;50.06;101167.55;1751203;81;20933;-60
2022/03/23 07:29:50;;;;;;;52.03;27.35;;;;;;;11.74;49.92;101157.87;1723307;83;22159;-60
2022/03/23 07:32:17;;;;;;;48.00;27.77;;;;;;;11.62;49.97;101163.44;1723850;81;20920;-60
2022/03/23 07:34:43;;;;;;;42.10;23.73;;;;;;;11.65;49.86;101164.23;1752835;81;20902;-60
2022/03/23 07:37:10;;;;;;;39.47;24.23;;;;;;;11.18;47.79;101162.92;1758895;81;20934;-61
2022/03/23 07:39:37;;;;;;;41.37;23.87;;;;;;;11.18;47.79;101162.92;1755669;81;21479;-61
2022/03/23 07:42:05;;;;;;;36.55;24.52;;;;;;;10.69;48.34;101166.79;1754849;81;21817;-60
2022/03/23 07:44:35;;;;;;;35.08;23.75;;;;;;;10.68;48.65;101167.70;1712228;83;20927;-61
2022/03/23 07:47:07;;;;;;;32.08;21.40;;;;;;;10.62;48.26;101166.55;1741760;81;20910;-61
2022/03/23 07:49:32;;;;;;;29.90;18.57;;;;;;;10.49;47.88;101168.13;1740008;81;20863;-61
2022/03/23 07:52:02;;;;;;;36.85;16.85;;;;;;;10.45;47.44;101165.19;1715859;81;20902;-60
2022/03/23 07:54:30;;;;;;;24.77;16.60;;;;;;;10.51;47.67;101168.95;1711730;81;22433;-60
2022/03/23 07:56:59;;;;;;;24.15;16.57;;;;;;;10.46;46.93;101162.98;1707116;81;20897;-60
2022/03/23 07:59:26;;;;;;;22.95;14.25;;;;;;;10.41;46.79;101159.61;1701839;83;20915;-60
2022/03/23 08:01:54;;;;;;;19.73;13.78;;;;;;;10.46;46.31;101160.37;1710039;81;21417;-60
2022/03/23 08:04:21;;;;;;;21.82;14.40;;;;;;;10.36;45.13;101163.23;1698356;83;21009;-60
2022/03/23 08:06:48;;;;;;;30.10;14.18;;;;;;;10.37;45.44;101163.66;1703523;83;21636;-60
2022/03/23 08:09:15;;;;;;;21.27;13.62;;;;;;;10.51;45.77;101166.34;1698701;82;20950;-60
2022/03/23 08:11:43;;;;;;;;;;;;;;;10.53;45.34;101161.95;1701687;83;20913;-60
2022/03/23 08:14:10;;;;;;;23.02;12.50;;;;;;;10.66;45.28;101160.34;1695018;83;20123;-60
2022/03/23 08:16:36;;;;;;;14.83;12.68;;;;;;;10.72;44.84;101161.48;1713338;82;20950;-60
2022/03/23 08:19:07;;;;;;;33.50;13.65;;;;;;;10.79;43.64;101165.67;1703681;81;21827;-62
2022/03/23 08:21:39;;;;;;;19.27;13.10;;;;;;;10.71;43.47;101165.00;1708983;83;20942;-61
2022/03/23 08:24:05;;;;;;;14.45;11.63;;;;;;;10.66;42.38;101172.09;1703866;82;20994;-62
2022/03/23 08:26:34;;;;;;;19.00;12.37;;;;;;;10.48;40.64;101174.26;1698343;83;20955;-61
2022/03/23 08:29:03;;;;;;;17.87;12.15;;;;;;;10.30;40.57;101174.67;1703740;83;21327;-61
2022/03/23 08:31:30;;;;;;;16.37;11.93;;;;;;;10.18;40.59;101167.95;1694182;83;21063;-61
2022/03/23 08:33:57;;;;;;;17.97;11.97;;;;;;;10.02;39.73;101175.25;1716365;83;20934;-62
2022/03/23 08:36:29;;;;;;;16.30;12.25;;;;;;;10.00;40.20;101175.75;1690757;82;20982;-61
2022/03/23 08:38:58;;;;;;;19.27;13.65;;;;;;;10.03;40.01;101178.30;1706405;83;21427;-61
2022/03/23 08:41:25;;;;;;;17.20;13.10;;;;;;;10.20;41.17;101170.55;1697808;82;20976;-62
2022/03/23 08:43:56;;;;;;;21.17;13.20;;;;;;;10.03;37.64;101161.33;1705928;82;21143;-61
2022/03/23 08:46:28;;;;;;;17.52;13.05;;;;;;;10.16;39.90;101170.18;1700429;81;21472;-61
2022/03/23 08:48:56;;;;;;;20.62;13.70;;;;;;;10.24;39.33;101180.00;1704829;82;20903;-60
2022/03/23 08:51:27;;;;;;;21.10;13.95;;;;;;;10.22;40.01;101172.23;1705761;82;20973;-60
2022/03/23 08:53:56;;;;;;;21.37;12.98;;;;;;;10.24;40.13;101170.42;1709164;82;20946;-61
2022/03/23 08:56:23;;;;;;;51.40;15.93;;;;;;;10.25;39.90;101166.05;1715233;81;22584;-61
2022/03/23 08:58:49;;;;;;;17.20;13.18;;;;;;;10.45;40.24;101175.64;1702886;83;21547;-59
2022/03/23 09:01:19;;;;;;;17.90;14.25;;;;;;;10.43;38.75;101181.34;1724879;81;20957;-60
2022/03/23 09:03:46;;;;;;;17.27;13.55;;;;;;;10.22;38.30;101185.28;1711449;82;21048;-60
2022/03/23 09:06:13;;;;;;;;;;;;;;;10.06;38.37;101171.70;1726674;81;20894;-60
2022/03/23 09:08:44;;;;;;;15.58;11.97;;;;;;;10.15;36.37;101184.14;1723507;81;21275;-60
2022/03/23 09:11:11;;;;;;;17.15;13.05;;;;;;;10.07;37.59;101178.63;1713655;82;20966;-60
2022/03/23 09:13:38;;;;;;;;;;;;;;;10.14;38.85;101179.79;1721804;82;20970;-61
2022/03/23 09:16:05;;;;;;;;;;;;;;;10.36;38.61;101178.44;1714685;83;20166;-60
2022/03/23 09:18:33;;;;;;;17.37;12.20;;;;;;;10.55;38.67;101176.72;1699493;83;20471;-62
2022/03/23 09:21:01;;;;;;;17.17;12.25;;;;;;;10.66;38.25;101181.23;1705854;83;21098;-65
2022/03/23 09:23:27;;;;;;;22.85;12.95;;;;;;;10.74;38.71;101175.38;1696729;83;26544;-65
2022/03/23 09:25:54;;;;;;;22.65;14.40;;;;;;;10.86;38.64;101179.43;1702205;82;20890;-63
2022/03/23 09:28:22;;;;;;;16.55;13.55;;;;;;;10.77;35.81;101173.98;1695797;82;20947;-64
2022/03/23 09:30:49;;;;;;;22.07;14.73;;;;;;;10.71;37.64;101172.84;1702162;81;21443;-63
2022/03/23 09:33:16;;;;;;;25.88;15.20;;;;;;;10.90;38.25;101168.02;1701200;82;21042;-61
2022/03/23 09:35:43;;;;;;;21.40;15.72;;;;;;;11.04;38.15;101178.12;1710020;81;20936;-62
2022/03/23 09:38:13;;;;;;;25.97;15.43;;;;;;;11.10;38.46;101164.89;1670318;83;21528;-63
2022/03/23 09:40:43;;;;;;;19.17;14.95;;;;;;;11.22;38.20;101163.23;1708275;83;20977;-62
2022/03/23 09:43:11;;;;;;;21.05;15.25;;;;;;;11.29;37.16;101167.88;1696406;82;21521;-61
2022/03/23 09:48:20;;;;;;;23.77;18.05;;;;;;;11.12;37.80;101168.33;1694137;83;21010;-62
2022/03/23 09:50:50;;;;;;;30.97;17.80;;;;;;;11.13;37.77;101163.50;1730672;81;20904;-62
2022/03/23 09:53:17;;;;;;;21.90;16.75;;;;;;;11.26;38.10;101160.97;1745880;81;20938;-61
2022/03/23 09:55:44;;;;;;;22.35;16.82;;;;;;;11.42;37.42;101153.54;1720717;83;20954;-61
2022/03/23 09:58:11;;;;;;;23.33;18.23;;;;;;;11.42;37.13;101154.39;1745213;81;21871;-59
2022/03/23 10:00:42;;;;;;;21.12;17.45;;;;;;;11.43;37.71;101149.59;1751004;80;20891;-59
2022/03/23 10:03:42;;;;;;;22.85;17.00;;;;;;;11.47;37.60;101149.05;1716922;81;20904;-59
2022/03/23 10:06:29;;;;;;;24.82;17.17;;;;;;;11.58;37.74;101144.81;1751073;81;20929;-59
2022/03/23 10:09:10;;;;;;;22.48;17.23;;;;;;;11.58;38.07;101143.51;1642097;84;20966;-60
2022/03/23 10:12:22;;;;;;;22.82;18.15;;;;;;;11.76;38.32;101149.53;1704435;83;21859;-59
2022/03/23 10:15:40;;;;;;;29.37;19.37;;;;;;;11.88;37.61;101147.03;1699718;83;21030;-60
2022/03/23 10:18:51;;;;;;;28.02;17.87;;;;;;;11.90;37.95;101143.03;1721713;82;20943;-60
2022/03/23 10:21:21;;;;;;;27.27;16.73;;;;;;;12.04;38.10;101134.31;1717083;82;20967;-60
2022/03/23 10:24:03;;;;;;;23.98;16.45;;;;;;;12.07;38.02;101137.72;1716222;82;20971;-60
2022/03/23 10:26:33;;;;;;;30.77;16.52;;;;;;;12.14;38.25;101127.89;1690208;82;21121;-60
2022/03/23 10:29:01;;;;;;;21.42;16.80;;;;;;;12.25;38.39;101128.41;1720188;82;20903;-59
2022/03/23 10:31:29;;;;;;;21.68;15.08;;;;;;;12.37;38.07;101126.30;1718464;82;20955;-61
2022/03/23 10:34:08;;;;;;;23.50;15.72;;;;;;;12.46;38.43;101120.76;1712466;82;20987;-58
2022/03/23 10:36:42;;;;;;;27.45;15.48;;;;;;;12.62;38.60;101120.66;1694731;82;20960;-59
2022/03/23 10:39:11;;;;;;;27.42;16.60;;;;;;;12.75;38.06;101120.66;1664659;84;21237;-59
2022/03/23 10:41:38;;;;;;;22.52;16.70;;;;;;;12.67;38.02;101114.81;1675032;84;20973;-59
2022/03/23 10:44:16;;;;;;;23.55;15.68;;;;;;;12.44;37.70;101112.12;1669709;85;20952;-59
2022/03/23 10:46:44;;;;;;;22.55;16.10;;;;;;;12.49;38.07;101114.11;1714164;81;20907;-58
2022/03/23 10:49:11;;;;;;;;;;;;;;;12.59;38.23;101118.61;1736081;81;21500;-59
2022/03/23 10:51:38;;;;;;;28.85;17.35;;;;;;;12.74;37.64;101116.34;1755162;81;21221;-59
2022/03/23 10:54:26;;;;;;;26.15;17.12;;;;;;;12.76;38.15;101117.11;1736720;81;21455;-60
2022/03/23 10:56:50;;;;;;;31.20;17.92;;;;;;;12.59;37.75;101113.36;1746311;81;20918;-59
2022/03/23 10:59:22;;;;;;;26.93;17.92;;;;;;;12.43;37.85;101111.23;1707588;83;21483;-60
2022/03/23 11:02:07;;;;;;;22.98;17.57;;;;;;;12.35;37.66;101113.28;1750183;80;20919;-59
2022/03/23 11:04:53;;;;;;;20.45;16.95;;;;;;;12.31;37.46;101119.05;1709161;83;21439;-60
2022/03/23 11:07:35;;;;;;;25.95;17.57;;;;;;;12.29;37.61;101122.19;1736174;81;20978;-60
2022/03/23 14:47:54;;;;;;;38.25;22.32;;;;;;;9.16;44.80;101028.45;1871630;74;23568;-59
2022/03/23 14:50:21;;;;;;;40.92;23.55;;;;;;;9.04;45.61;101041.70;1840769;76;21071;-58
2022/03/23 14:52:49;;;;;;;33.23;23.38;;;;;;;8.92;45.29;101041.96;1844887;76;21068;-58
2022/03/23 14:55:16;;;;;;;35.80;23.55;;;;;;;8.88;45.12;101033.80;1846777;77;21052;-59
2022/03/23 14:57:44;;;;;;;47.60;24.32;;;;;;;8.87;45.31;101037.28;1836313;76;21554;-59
2022/03/23 15:00:12;;;;;;;43.85;24.60;;;;;;;8.84;45.39;101036.04;1842915;77;20923;-59
2022/03/23 15:02:39;;;;;;;39.48;22.02;;;;;;;8.73;45.49;101038.39;1835329;75;21004;-59
2022/03/23 15:13:15;;;;;;;28.98;21.55;;;;;;;8.69;45.55;101031.53;1842623;77;21104;-58
2022/03/23 15:13:18;;;;;;;40.90;23.02;;;;;;;8.50;45.90;101029.70;1827091;77;20966;-59